sensor_id;sensor_type;location;lat;lon;timestamp;pressure;altitude;pressure_sealevel;temperature;humidity
80699;BME280;70062;51.658;5.658;2024-03-17T00:00:30;102226.52;;;20.19;41.23
80699;BME280;70062;51.658;5.658;2024-03-17T00:02:56;102229.30;;;20.41;41.12
80699;BME280;70062;51.658;5.658;2024-03-17T00:05:22;102226.39;;;20.66;40.80
80699;BME280;70062;51.658;5.658;2024-03-17T00:07:48;102222.24;;;20.84;40.45
80699;BME280;70062;51.658;5.658;2024-03-17T00:10:14;102214.47;;;20.92;40.33
80699;BME280;70062;51.658;5.658;2024-03-17T00:12:40;102211.60;;;20.96;40.09
80699;BME280;70062;51.658;5.658;2024-03-17T00:15:06;102213.80;;;20.93;39.88
80699;BME280;70062;51.658;5.658;2024-03-17T00:17:33;102211.67;;;20.87;40.02
80699;BME280;70062;51.658;5.658;2024-03-17T00:20:00;102212.40;;;20.76;40.03
80699;BME280;70062;51.658;5.658;2024-03-17T00:22:29;102208.67;;;20.62;40.16
80699;BME280;70062;51.658;5.658;2024-03-17T00:24:55;102204.78;;;20.48;40.36
80699;BME280;70062;51.658;5.658;2024-03-17T00:27:21;102202.36;;;20.33;40.60
80699;BME280;70062;51.658;5.658;2024-03-17T00:29:47;102197.97;;;20.15;40.76
80699;BME280;70062;51.658;5.658;2024-03-17T00:32:13;102194.77;;;19.91;41.13
80699;BME280;70062;51.658;5.658;2024-03-17T00:34:39;102195.02;;;19.77;41.59
80699;BME280;70062;51.658;5.658;2024-03-17T00:37:05;102193.30;;;19.95;41.81
80699;BME280;70062;51.658;5.658;2024-03-17T00:39:31;102194.78;;;20.25;41.52
80699;BME280;70062;51.658;5.658;2024-03-17T00:41:57;102188.67;;;20.47;41.11
80699;BME280;70062;51.658;5.658;2024-03-17T00:44:23;102188.61;;;20.62;40.73
80699;BME280;70062;51.658;5.658;2024-03-17T00:46:49;102193.91;;;20.71;40.46
80699;BME280;70062;51.658;5.658;2024-03-17T00:49:14;102195.52;;;20.72;40.35
80699;BME280;70062;51.658;5.658;2024-03-17T00:51:40;102199.23;;;20.68;40.24
80699;BME280;70062;51.658;5.658;2024-03-17T00:54:07;102197.07;;;20.59;40.46
80699;BME280;70062;51.658;5.658;2024-03-17T00:56:42;102196.59;;;20.49;40.35
80699;BME280;70062;51.658;5.658;2024-03-17T00:59:11;102189.48;;;20.34;40.54
80699;BME280;70062;51.658;5.658;2024-03-17T01:01:37;102185.55;;;20.20;40.64
80699;BME280;70062;51.658;5.658;2024-03-17T01:04:03;102185.11;;;20.06;40.85
80699;BME280;70062;51.658;5.658;2024-03-17T01:06:28;102182.55;;;19.86;41.07
80699;BME280;70062;51.658;5.658;2024-03-17T01:08:54;102179.81;;;19.66;41.59
80699;BME280;70062;51.658;5.658;2024-03-17T01:11:20;102179.45;;;19.76;41.89
80699;BME280;70062;51.658;5.658;2024-03-17T01:13:46;102181.48;;;20.07;41.60
80699;BME280;70062;51.658;5.658;2024-03-17T01:16:13;102179.16;;;20.33;41.34
80699;BME280;70062;51.658;5.658;2024-03-17T01:18:39;102183.40;;;20.51;40.75
80699;BME280;70062;51.658;5.658;2024-03-17T01:21:06;102184.58;;;20.62;40.70
80699;BME280;70062;51.658;5.658;2024-03-17T01:23:31;102180.11;;;20.64;40.46
80699;BME280;70062;51.658;5.658;2024-03-17T01:25:58;102174.64;;;20.62;40.31
80699;BME280;70062;51.658;5.658;2024-03-17T01:28:23;102171.12;;;20.55;40.19
80699;BME280;70062;51.658;5.658;2024-03-17T01:30:49;102169.24;;;20.44;40.35
80699;BME280;70062;51.658;5.658;2024-03-17T01:33:15;102165.20;;;20.33;40.35
80699;BME280;70062;51.658;5.658;2024-03-17T01:35:43;102159.55;;;20.19;40.58
80699;BME280;70062;51.658;5.658;2024-03-17T01:38:08;102152.27;;;20.03;40.77
80699;BME280;70062;51.658;5.658;2024-03-17T01:40:36;102150.64;;;19.85;40.94
80699;BME280;70062;51.658;5.658;2024-03-17T01:43:01;102147.85;;;19.64;41.36
80699;BME280;70062;51.658;5.658;2024-03-17T01:47:55;102139.20;;;19.87;41.65
80699;BME280;70062;51.658;5.658;2024-03-17T01:50:27;102140.44;;;20.21;41.27
80699;BME280;70062;51.658;5.658;2024-03-17T01:52:55;102136.59;;;20.43;40.84
80699;BME280;70062;51.658;5.658;2024-03-17T01:55:22;102133.52;;;20.57;40.48
80699;BME280;70062;51.658;5.658;2024-03-17T01:57:52;102133.98;;;20.62;40.32
80699;BME280;70062;51.658;5.658;2024-03-17T02:00:18;102131.17;;;20.61;40.07
80699;BME280;70062;51.658;5.658;2024-03-17T02:02:44;102128.73;;;20.55;40.00
80699;BME280;70062;51.658;5.658;2024-03-17T02:05:10;102128.25;;;20.44;40.10
80699;BME280;70062;51.658;5.658;2024-03-17T02:07:36;102132.13;;;20.34;40.23
80699;BME280;70062;51.658;5.658;2024-03-17T02:10:02;102131.17;;;20.20;40.35
80699;BME280;70062;51.658;5.658;2024-03-17T02:12:31;102134.73;;;20.06;40.55
80699;BME280;70062;51.658;5.658;2024-03-17T02:14:58;102123.02;;;19.87;40.77
80699;BME280;70062;51.658;5.658;2024-03-17T02:17:24;102124.59;;;19.66;41.11
80699;BME280;70062;51.658;5.658;2024-03-17T02:19:51;102117.70;;;19.58;41.54
80699;BME280;70062;51.658;5.658;2024-03-17T02:22:20;102118.71;;;19.84;41.56
80699;BME280;70062;51.658;5.658;2024-03-17T02:24:46;102119.66;;;20.14;41.25
80699;BME280;70062;51.658;5.658;2024-03-17T02:27:12;102122.48;;;20.38;40.84
80699;BME280;70062;51.658;5.658;2024-03-17T02:29:39;102121.70;;;20.53;40.37
80699;BME280;70062;51.658;5.658;2024-03-17T02:32:08;102120.46;;;20.59;40.11
80699;BME280;70062;51.658;5.658;2024-03-17T02:34:35;102118.02;;;20.59;40.03
80699;BME280;70062;51.658;5.658;2024-03-17T02:37:02;102102.11;;;20.45;39.92
80699;BME280;70062;51.658;5.658;2024-03-17T02:39:30;102119.09;;;20.47;40.14
80699;BME280;70062;51.658;5.658;2024-03-17T02:42:06;102116.61;;;20.35;39.99
80699;BME280;70062;51.658;5.658;2024-03-17T02:44:34;102110.95;;;20.21;40.16
80699;BME280;70062;51.658;5.658;2024-03-17T02:47:01;102108.08;;;20.06;40.36
80699;BME280;70062;51.658;5.658;2024-03-17T02:49:28;102107.05;;;19.90;40.49
80699;BME280;70062;51.658;5.658;2024-03-17T02:52:02;102104.44;;;19.67;40.93
80699;BME280;70062;51.658;5.658;2024-03-17T02:54:30;102100.41;;;19.56;41.37
80699;BME280;70062;51.658;5.658;2024-03-17T02:56:56;102097.31;;;19.79;41.37
80699;BME280;70062;51.658;5.658;2024-03-17T02:59:23;102093.69;;;20.09;41.07
80699;BME280;70062;51.658;5.658;2024-03-17T03:01:49;102096.04;;;20.35;40.74
80699;BME280;70062;51.658;5.658;2024-03-17T03:04:15;102093.17;;;20.50;40.24
80699;BME280;70062;51.658;5.658;2024-03-17T03:06:46;102092.52;;;20.58;39.98
80699;BME280;70062;51.658;5.658;2024-03-17T03:09:14;102098.11;;;20.58;39.74
80699;BME280;70062;51.658;5.658;2024-03-17T03:11:53;102099.95;;;20.55;39.78
80699;BME280;70062;51.658;5.658;2024-03-17T03:14:22;102103.05;;;20.47;39.72
80699;BME280;70062;51.658;5.658;2024-03-17T03:16:52;102105.71;;;20.37;39.88
80699;BME280;70062;51.658;5.658;2024-03-17T03:19:23;102106.21;;;20.26;39.96
80699;BME280;70062;51.658;5.658;2024-03-17T03:21:51;102110.39;;;20.14;40.02
80699;BME280;70062;51.658;5.658;2024-03-17T03:24:20;102108.53;;;19.98;40.27
80699;BME280;70062;51.658;5.658;2024-03-17T03:26:49;102103.34;;;19.77;40.60
80699;BME280;70062;51.658;5.658;2024-03-17T03:29:25;102104.80;;;19.68;41.02
80699;BME280;70062;51.658;5.658;2024-03-17T03:31:54;102100.64;;;19.91;41.04
80699;BME280;70062;51.658;5.658;2024-03-17T03:34:23;102104.83;;;20.26;40.73
80699;BME280;70062;51.658;5.658;2024-03-17T03:36:53;102102.98;;;20.52;40.29
80699;BME280;70062;51.658;5.658;2024-03-17T03:39:22;102098.93;;;20.69;39.87
80699;BME280;70062;51.658;5.658;2024-03-17T03:41:53;102088.67;;;20.76;39.78
80699;BME280;70062;51.658;5.658;2024-03-17T03:44:23;102088.54;;;20.78;39.32
80699;BME280;70062;51.658;5.658;2024-03-17T03:46:52;102086.67;;;20.73;39.38
80699;BME280;70062;51.658;5.658;2024-03-17T03:49:31;102086.64;;;20.66;39.55
80699;BME280;70062;51.658;5.658;2024-03-17T03:52:04;102089.30;;;20.55;39.45
80699;BME280;70062;51.658;5.658;2024-03-17T03:54:47;102084.19;;;20.41;39.65
80699;BME280;70062;51.658;5.658;2024-03-17T03:57:20;102077.48;;;20.27;39.81
80699;BME280;70062;51.658;5.658;2024-03-17T03:59:50;102074.20;;;20.10;40.04
80699;BME280;70062;51.658;5.658;2024-03-17T04:02:19;102067.70;;;19.91;40.45
80699;BME280;70062;51.658;5.658;2024-03-17T04:04:50;102067.09;;;20.12;40.77
80699;BME280;70062;51.658;5.658;2024-03-17T04:07:20;102064.93;;;20.63;40.39
80699;BME280;70062;51.658;5.658;2024-03-17T04:09:51;102061.02;;;21.12;39.53
80699;BME280;70062;51.658;5.658;2024-03-17T04:12:23;102050.06;;;21.49;39.04
80699;BME280;70062;51.658;5.658;2024-03-17T04:14:54;102046.20;;;21.71;38.31
80699;BME280;70062;51.658;5.658;2024-03-17T04:17:28;102048.62;;;21.85;38.09
80699;BME280;70062;51.658;5.658;2024-03-17T04:20:14;102047.98;;;21.88;37.73
80699;BME280;70062;51.658;5.658;2024-03-17T04:22:46;102045.95;;;21.83;37.69
80699;BME280;70062;51.658;5.658;2024-03-17T04:25:24;102046.95;;;21.73;37.54
80699;BME280;70062;51.658;5.658;2024-03-17T04:27:58;102049.60;;;21.59;37.76
80699;BME280;70062;51.658;5.658;2024-03-17T04:30:28;102039.40;;;21.41;37.85
80699;BME280;70062;51.658;5.658;2024-03-17T04:32:59;102036.02;;;21.25;37.98
80699;BME280;70062;51.658;5.658;2024-03-17T04:35:29;102036.58;;;21.05;38.07
80699;BME280;70062;51.658;5.658;2024-03-17T04:38:01;102038.37;;;20.87;38.49
80699;BME280;70062;51.658;5.658;2024-03-17T04:40:34;102034.35;;;20.67;38.71
80699;BME280;70062;51.658;5.658;2024-03-17T04:43:05;102035.03;;;20.48;38.99
80699;BME280;70062;51.658;5.658;2024-03-17T04:45:36;102036.39;;;20.29;39.38
80699;BME280;70062;51.658;5.658;2024-03-17T04:48:06;102035.14;;;20.09;39.69
80699;BME280;70062;51.658;5.658;2024-03-17T04:50:36;102031.48;;;19.92;39.78
80699;BME280;70062;51.658;5.658;2024-03-17T04:53:07;102027.98;;;19.74;40.22
80699;BME280;70062;51.658;5.658;2024-03-17T04:55:38;102021.28;;;19.55;40.41
80699;BME280;70062;51.658;5.658;2024-03-17T04:58:16;102022.55;;;19.40;40.74
80699;BME280;70062;51.658;5.658;2024-03-17T05:00:48;102028.13;;;19.24;41.14
80699;BME280;70062;51.658;5.658;2024-03-17T05:03:19;102028.30;;;19.09;41.45
80699;BME280;70062;51.658;5.658;2024-03-17T05:05:57;102030.95;;;18.95;41.71
80699;BME280;70062;51.658;5.658;2024-03-17T05:08:28;102029.89;;;18.79;42.05
80699;BME280;70062;51.658;5.658;2024-03-17T05:11:01;102032.20;;;18.65;42.35
80699;BME280;70062;51.658;5.658;2024-03-17T05:13:34;102035.20;;;18.53;42.71
80699;BME280;70062;51.658;5.658;2024-03-17T05:16:04;102031.15;;;18.42;42.82
80699;BME280;70062;51.658;5.658;2024-03-17T05:18:34;102026.70;;;18.30;43.08
80699;BME280;70062;51.658;5.658;2024-03-17T05:21:06;102022.98;;;18.18;43.38
80699;BME280;70062;51.658;5.658;2024-03-17T05:23:37;102022.10;;;18.08;43.59
80699;BME280;70062;51.658;5.658;2024-03-17T05:26:08;102019.41;;;17.96;43.91
80699;BME280;70062;51.658;5.658;2024-03-17T05:28:39;102021.20;;;17.89;44.06
80699;BME280;70062;51.658;5.658;2024-03-17T05:31:10;102022.60;;;17.80;44.29
80699;BME280;70062;51.658;5.658;2024-03-17T05:33:42;102021.41;;;17.72;44.54
80699;BME280;70062;51.658;5.658;2024-03-17T05:36:14;102022.95;;;17.63;44.79
80699;BME280;70062;51.658;5.658;2024-03-17T05:38:47;102027.50;;;17.55;44.92
80699;BME280;70062;51.658;5.658;2024-03-17T05:41:17;102029.48;;;17.48;45.10
80699;BME280;70062;51.658;5.658;2024-03-17T05:43:47;102031.81;;;17.41;45.29
80699;BME280;70062;51.658;5.658;2024-03-17T05:46:23;102034.59;;;17.33;45.84
80699;BME280;70062;51.658;5.658;2024-03-17T05:48:57;102035.38;;;17.52;46.09
80699;BME280;70062;51.658;5.658;2024-03-17T05:51:28;102030.31;;;18.09;45.76
80699;BME280;70062;51.658;5.658;2024-03-17T05:53:56;102019.27;;;18.84;44.69
80699;BME280;70062;51.658;5.658;2024-03-17T05:56:24;102013.58;;;19.48;43.58
80699;BME280;70062;51.658;5.658;2024-03-17T05:58:49;102011.59;;;19.97;42.49
80699;BME280;70062;51.658;5.658;2024-03-17T06:01:15;102014.09;;;20.30;41.65
80699;BME280;70062;51.658;5.658;2024-03-17T06:03:42;102016.42;;;20.38;41.08
80699;BME280;70062;51.658;5.658;2024-03-17T06:06:08;102005.81;;;20.38;40.95
80699;BME280;70062;51.658;5.658;2024-03-17T06:08:38;102009.30;;;20.77;40.52
80699;BME280;70062;51.658;5.658;2024-03-17T06:11:08;102001.66;;;21.20;39.79
80699;BME280;70062;51.658;5.658;2024-03-17T06:14:09;102007.84;;;21.59;39.02
80699;BME280;70062;51.658;5.658;2024-03-17T06:16:51;102014.60;;;21.80;38.41
80699;BME280;70062;51.658;5.658;2024-03-17T06:19:46;102020.95;;;21.91;38.01
80699;BME280;70062;51.658;5.658;2024-03-17T06:22:40;102023.20;;;21.91;37.87
80699;BME280;70062;51.658;5.658;2024-03-17T06:25:30;102025.51;;;21.84;37.68
80699;BME280;70062;51.658;5.658;2024-03-17T06:28:05;102024.55;;;21.72;37.77
80699;BME280;70062;51.658;5.658;2024-03-17T06:30:56;102024.38;;;21.57;37.77
80699;BME280;70062;51.658;5.658;2024-03-17T06:33:45;102031.62;;;21.37;37.86
80699;BME280;70062;51.658;5.658;2024-03-17T06:36:15;102022.80;;;21.20;37.89
80699;BME280;70062;51.658;5.658;2024-03-17T06:38:48;102017.46;;;21.02;38.18
80699;BME280;70062;51.658;5.658;2024-03-17T06:41:17;102026.77;;;20.83;38.56
80699;BME280;70062;51.658;5.658;2024-03-17T06:43:42;102023.66;;;20.66;38.59
80699;BME280;70062;51.658;5.658;2024-03-17T06:46:08;102026.48;;;20.48;38.93
80699;BME280;70062;51.658;5.658;2024-03-17T06:48:34;102023.17;;;20.30;38.98
80699;BME280;70062;51.658;5.658;2024-03-17T06:51:04;102020.61;;;20.13;39.52
80699;BME280;70062;51.658;5.658;2024-03-17T06:53:34;102024.10;;;19.96;39.63
80699;BME280;70062;51.658;5.658;2024-03-17T06:56:04;102026.41;;;19.79;39.97
80699;BME280;70062;51.658;5.658;2024-03-17T06:58:37;102027.82;;;19.63;40.21
80699;BME280;70062;51.658;5.658;2024-03-17T07:01:11;102026.94;;;19.47;40.47
80699;BME280;70062;51.658;5.658;2024-03-17T07:04:01;102027.36;;;19.33;40.83
80699;BME280;70062;51.658;5.658;2024-03-17T07:06:35;102030.63;;;19.15;41.17
80699;BME280;70062;51.658;5.658;2024-03-17T07:09:09;102032.59;;;19.02;41.44
80699;BME280;70062;51.658;5.658;2024-03-17T07:12:23;102025.59;;;18.85;41.67
80699;BME280;70062;51.658;5.658;2024-03-17T07:15:38;102029.01;;;18.73;41.99
80699;BME280;70062;51.658;5.658;2024-03-17T07:18:13;102027.34;;;18.57;42.35
80699;BME280;70062;51.658;5.658;2024-03-17T07:20:44;102026.73;;;18.44;42.61
80699;BME280;70062;51.658;5.658;2024-03-17T07:23:14;102022.45;;;18.32;43.02
80699;BME280;70062;51.658;5.658;2024-03-17T07:25:42;102023.11;;;18.21;43.18
80699;BME280;70062;51.658;5.658;2024-03-17T07:28:12;102020.79;;;18.10;43.41
80699;BME280;70062;51.658;5.658;2024-03-17T07:30:49;102015.47;;;17.98;43.64
80699;BME280;70062;51.658;5.658;2024-03-17T07:33:17;102012.73;;;17.85;43.84
80699;BME280;70062;51.658;5.658;2024-03-17T07:35:51;102019.38;;;17.77;44.16
80699;BME280;70062;51.658;5.658;2024-03-17T07:38:18;102024.16;;;17.67;44.39
80699;BME280;70062;51.658;5.658;2024-03-17T07:41:08;102022.56;;;17.57;44.66
80699;BME280;70062;51.658;5.658;2024-03-17T07:43:40;102015.16;;;17.46;44.97
80699;BME280;70062;51.658;5.658;2024-03-17T07:46:11;102014.95;;;17.36;45.25
80699;BME280;70062;51.658;5.658;2024-03-17T07:48:44;102014.42;;;17.28;45.35
80699;BME280;70062;51.658;5.658;2024-03-17T07:51:14;102015.14;;;17.20;45.67
80699;BME280;70062;51.658;5.658;2024-03-17T07:53:47;102009.30;;;17.13;45.89
80699;BME280;70062;51.658;5.658;2024-03-17T07:56:18;102012.45;;;17.05;46.01
80699;BME280;70062;51.658;5.658;2024-03-17T07:59:08;102018.37;;;16.97;46.20
80699;BME280;70062;51.658;5.658;2024-03-17T08:01:46;102017.95;;;16.91;46.35
80699;BME280;70062;51.658;5.658;2024-03-17T08:04:19;102023.60;;;16.86;46.55
80699;BME280;70062;51.658;5.658;2024-03-17T08:06:51;102027.67;;;16.80;46.78
80699;BME280;70062;51.658;5.658;2024-03-17T08:09:17;102026.29;;;16.76;47.24
80699;BME280;70062;51.658;5.658;2024-03-17T08:11:46;102020.95;;;16.97;47.57
80699;BME280;70062;51.658;5.658;2024-03-17T08:14:16;102010.34;;;17.56;47.27
80699;BME280;70062;51.658;5.658;2024-03-17T08:17:44;102001.43;;;18.57;45.98
80699;BME280;70062;51.658;5.658;2024-03-17T08:20:39;101993.27;;;19.85;43.65
80699;BME280;70062;51.658;5.658;2024-03-17T08:23:05;101995.34;;;20.51;42.26
80699;BME280;70062;51.658;5.658;2024-03-17T08:25:32;101994.16;;;20.99;41.08
80699;BME280;70062;51.658;5.658;2024-03-17T08:28:02;101993.40;;;21.31;40.26
80699;BME280;70062;51.658;5.658;2024-03-17T08:30:40;102001.07;;;21.53;39.40
80699;BME280;70062;51.658;5.658;2024-03-17T08:33:17;102007.61;;;21.65;38.97
80699;BME280;70062;51.658;5.658;2024-03-17T08:36:06;102007.48;;;21.67;38.68
80699;BME280;70062;51.658;5.658;2024-03-17T08:38:36;102009.83;;;21.62;38.55
80699;BME280;70062;51.658;5.658;2024-03-17T08:41:06;102004.73;;;21.53;38.46
80699;BME280;70062;51.658;5.658;2024-03-17T08:43:40;102011.83;;;21.42;38.47
80699;BME280;70062;51.658;5.658;2024-03-17T08:46:19;102004.27;;;21.25;38.48
80699;BME280;70062;51.658;5.658;2024-03-17T08:48:50;102007.02;;;21.10;38.73
80699;BME280;70062;51.658;5.658;2024-03-17T08:51:16;102009.94;;;20.94;38.73
80699;BME280;70062;51.658;5.658;2024-03-17T08:53:41;102010.23;;;20.79;39.03
80699;BME280;70062;51.658;5.658;2024-03-17T08:56:07;102011.04;;;20.64;39.26
80699;BME280;70062;51.658;5.658;2024-03-17T08:58:33;102010.40;;;20.46;39.40
80699;BME280;70062;51.658;5.658;2024-03-17T09:01:04;102012.72;;;20.30;39.73
80699;BME280;70062;51.658;5.658;2024-03-17T09:03:30;102009.85;;;20.15;40.16
80699;BME280;70062;51.658;5.658;2024-03-17T09:05:56;102004.09;;;19.97;40.31
80699;BME280;70062;51.658;5.658;2024-03-17T09:08:23;101994.79;;;19.83;40.64
80699;BME280;70062;51.658;5.658;2024-03-17T09:10:50;101993.67;;;19.69;40.93
80699;BME280;70062;51.658;5.658;2024-03-17T09:13:17;101991.10;;;19.53;41.18
80699;BME280;70062;51.658;5.658;2024-03-17T09:16:09;101991.52;;;19.39;41.41
80699;BME280;70062;51.658;5.658;2024-03-17T09:18:36;101993.13;;;19.24;41.81
80699;BME280;70062;51.658;5.658;2024-03-17T09:23:29;101993.84;;;18.99;42.27
80699;BME280;70062;51.658;5.658;2024-03-17T09:25:59;101996.04;;;18.86;42.56
80699;BME280;70062;51.658;5.658;2024-03-17T09:28:26;101998.67;;;18.72;42.83
80699;BME280;70062;51.658;5.658;2024-03-17T09:30:52;102000.79;;;18.62;43.49
80699;BME280;70062;51.658;5.658;2024-03-17T09:33:19;101995.91;;;18.88;43.85
80699;BME280;70062;51.658;5.658;2024-03-17T09:35:57;101992.65;;;19.47;43.39
80699;BME280;70062;51.658;5.658;2024-03-17T09:38:23;101991.34;;;20.33;42.46
80699;BME280;70062;51.658;5.658;2024-03-17T09:40:49;101987.65;;;21.11;40.81
80699;BME280;70062;51.658;5.658;2024-03-17T09:43:17;101986.08;;;21.71;39.92
80699;BME280;70062;51.658;5.658;2024-03-17T09:45:43;101981.35;;;22.11;38.92
80699;BME280;70062;51.658;5.658;2024-03-17T09:48:14;101981.17;;;22.39;38.17
80699;BME280;70062;51.658;5.658;2024-03-17T09:50:40;101979.91;;;22.54;37.61
80699;BME280;70062;51.658;5.658;2024-03-17T09:53:05;101978.13;;;22.62;37.36
80699;BME280;70062;51.658;5.658;2024-03-17T09:55:32;101971.45;;;22.60;37.06
80699;BME280;70062;51.658;5.658;2024-03-17T09:57:58;101965.02;;;22.54;36.91
80699;BME280;70062;51.658;5.658;2024-03-17T10:00:24;101965.02;;;22.44;36.85
80699;BME280;70062;51.658;5.658;2024-03-17T10:02:49;101965.30;;;22.31;37.05
80699;BME280;70062;51.658;5.658;2024-03-17T10:05:22;101967.64;;;22.17;37.06
80699;BME280;70062;51.658;5.658;2024-03-17T10:07:48;101969.89;;;21.99;37.19
80699;BME280;70062;51.658;5.658;2024-03-17T10:10:15;101968.48;;;21.82;37.36
80699;BME280;70062;51.658;5.658;2024-03-17T10:12:43;101965.98;;;21.63;37.43
80699;BME280;70062;51.658;5.658;2024-03-17T10:15:12;101969.44;;;21.45;37.79
80699;BME280;70062;51.658;5.658;2024-03-17T10:17:37;101962.67;;;21.25;37.99
80699;BME280;70062;51.658;5.658;2024-03-17T10:20:14;101962.92;;;21.06;38.28
80699;BME280;70062;51.658;5.658;2024-03-17T10:23:26;101962.70;;;20.84;38.61
80699;BME280;70062;51.658;5.658;2024-03-17T10:25:32;101964.67;;;20.52;39.20
80699;BME280;70062;51.658;5.658;2024-03-17T10:27:59;101963.52;;;20.48;39.71
80699;BME280;70062;51.658;5.658;2024-03-17T10:30:26;101960.48;;;20.65;39.50
80699;BME280;70062;51.658;5.658;2024-03-17T10:32:55;101955.28;;;20.87;39.50
80699;BME280;70062;51.658;5.658;2024-03-17T10:35:34;101955.98;;;21.01;39.18
80699;BME280;70062;51.658;5.658;2024-03-17T10:38:01;101950.01;;;21.06;38.96
80699;BME280;70062;51.658;5.658;2024-03-17T10:40:29;101950.89;;;21.07;38.83
80699;BME280;70062;51.658;5.658;2024-03-17T10:42:55;101951.17;;;21.04;38.75
80699;BME280;70062;51.658;5.658;2024-03-17T10:45:21;101950.95;;;20.95;38.93
80699;BME280;70062;51.658;5.658;2024-03-17T10:47:50;101953.86;;;20.85;39.03
80699;BME280;70062;51.658;5.658;2024-03-17T10:50:21;101956.50;;;20.73;39.12
80699;BME280;70062;51.658;5.658;2024-03-17T10:52:50;101952.80;;;20.59;39.17
80699;BME280;70062;51.658;5.658;2024-03-17T10:55:26;101955.06;;;20.45;39.37
80699;BME280;70062;51.658;5.658;2024-03-17T10:57:53;101950.60;;;20.29;39.64
80699;BME280;70062;51.658;5.658;2024-03-17T11:00:22;101948.27;;;20.14;39.92
80699;BME280;70062;51.658;5.658;2024-03-17T11:02:56;101944.97;;;19.95;40.15
80699;BME280;70062;51.658;5.658;2024-03-17T11:05:26;101948.20;;;19.74;40.69
80699;BME280;70062;51.658;5.658;2024-03-17T11:07:59;101947.44;;;19.78;41.09
80699;BME280;70062;51.658;5.658;2024-03-17T11:10:38;101947.48;;;20.04;41.10
80699;BME280;70062;51.658;5.658;2024-03-17T11:13:03;101946.60;;;20.29;40.77
80699;BME280;70062;51.658;5.658;2024-03-17T11:20:35;101938.20;;;21.80;38.91
80699;BME280;70062;51.658;5.658;2024-03-17T11:23:01;101937.17;;;22.15;38.20
80699;BME280;70062;51.658;5.658;2024-03-17T11:39:00;101930.02;;;22.25;36.72
80699;BME280;70062;51.658;5.658;2024-03-17T11:41:42;101929.89;;;22.09;36.79
80699;BME280;70062;51.658;5.658;2024-03-17T11:46:50;101933.30;;;21.71;37.34
80699;BME280;70062;51.658;5.658;2024-03-17T11:49:40;101932.38;;;21.52;37.46
80699;BME280;70062;51.658;5.658;2024-03-17T11:52:13;101935.70;;;21.22;37.78
80699;BME280;70062;51.658;5.658;2024-03-17T11:54:43;101933.97;;;21.00;38.33
80699;BME280;70062;51.658;5.658;2024-03-17T11:57:14;101934.71;;;21.09;38.57
80699;BME280;70062;51.658;5.658;2024-03-17T11:59:40;101930.20;;;21.32;38.49
80699;BME280;70062;51.658;5.658;2024-03-17T12:02:24;101927.30;;;21.51;38.14
80699;BME280;70062;51.658;5.658;2024-03-17T12:04:52;101922.98;;;21.62;38.05
80699;BME280;70062;51.658;5.658;2024-03-17T12:07:19;101919.56;;;21.66;37.64
80699;BME280;70062;51.658;5.658;2024-03-17T12:09:46;101917.20;;;21.61;37.70
80699;BME280;70062;51.658;5.658;2024-03-17T12:12:17;101914.08;;;21.54;37.92
80699;BME280;70062;51.658;5.658;2024-03-17T12:14:42;101913.83;;;21.42;37.75
80699;BME280;70062;51.658;5.658;2024-03-17T12:17:10;101910.73;;;21.28;37.97
80699;BME280;70062;51.658;5.658;2024-03-17T12:19:36;101907.92;;;21.14;38.13
80699;BME280;70062;51.658;5.658;2024-03-17T12:22:04;101903.25;;;20.93;38.26
80699;BME280;70062;51.658;5.658;2024-03-17T12:24:31;101902.01;;;20.71;38.94
80699;BME280;70062;51.658;5.658;2024-03-17T12:26:58;101901.00;;;20.73;39.19
80699;BME280;70062;51.658;5.658;2024-03-17T12:29:39;101894.11;;;20.97;39.07
80699;BME280;70062;51.658;5.658;2024-03-17T12:32:21;101890.11;;;21.21;38.74
80699;BME280;70062;51.658;5.658;2024-03-17T12:34:51;101884.88;;;21.36;38.37
80699;BME280;70062;51.658;5.658;2024-03-17T12:37:23;101881.34;;;21.42;38.25
80699;BME280;70062;51.658;5.658;2024-03-17T12:39:50;101879.41;;;21.42;38.20
80699;BME280;70062;51.658;5.658;2024-03-17T12:42:23;101871.44;;;21.37;38.17
80699;BME280;70062;51.658;5.658;2024-03-17T12:44:53;101868.43;;;21.27;38.15
80699;BME280;70062;51.658;5.658;2024-03-17T12:47:23;101863.59;;;21.14;38.22
80699;BME280;70062;51.658;5.658;2024-03-17T12:49:50;101857.17;;;21.01;38.46
80699;BME280;70062;51.658;5.658;2024-03-17T12:52:22;101857.61;;;20.82;38.57
80699;BME280;70062;51.658;5.658;2024-03-17T12:54:57;101853.72;;;20.59;39.03
80699;BME280;70062;51.658;5.658;2024-03-17T12:57:41;101852.04;;;20.61;39.51
80699;BME280;70062;51.658;5.658;2024-03-17T13:00:26;101851.70;;;20.90;39.31
80699;BME280;70062;51.658;5.658;2024-03-17T13:03:05;101850.80;;;21.12;38.94
80699;BME280;70062;51.658;5.658;2024-03-17T13:05:34;101848.19;;;21.28;38.82
80699;BME280;70062;51.658;5.658;2024-03-17T13:08:00;101843.78;;;21.34;38.47
80699;BME280;70062;51.658;5.658;2024-03-17T13:10:27;101841.00;;;21.34;38.48
80699;BME280;70062;51.658;5.658;2024-03-17T13:13:00;101840.36;;;21.29;38.25
80699;BME280;70062;51.658;5.658;2024-03-17T13:15:27;101839.30;;;21.21;38.28
80699;BME280;70062;51.658;5.658;2024-03-17T13:17:53;101836.79;;;21.10;38.53
80699;BME280;70062;51.658;5.658;2024-03-17T13:20:19;101831.79;;;20.98;38.60
80699;BME280;70062;51.658;5.658;2024-03-17T13:22:45;101830.70;;;20.81;38.96
80699;BME280;70062;51.658;5.658;2024-03-17T13:25:15;101832.08;;;20.58;39.12
80699;BME280;70062;51.658;5.658;2024-03-17T13:27:48;101823.27;;;20.55;39.62
80699;BME280;70062;51.658;5.658;2024-03-17T13:30:15;101821.75;;;20.79;39.47
80699;BME280;70062;51.658;5.658;2024-03-17T13:32:41;101813.41;;;21.03;39.26
80699;BME280;70062;51.658;5.658;2024-03-17T13:35:20;101808.05;;;21.21;38.85